createdAt,value
2019-03-13T00:00:41.938Z,97982.86
2019-03-13T00:03:11.090Z,97983.63
2019-03-13T00:05:39.923Z,97978.75
2019-03-13T00:08:08.720Z,97976.31
2019-03-13T00:10:37.266Z,97975.52
2019-03-13T00:13:06.034Z,97973.63
2019-03-13T00:15:34.659Z,97967.00
2019-03-13T00:18:03.253Z,97968.09
2019-03-13T00:20:31.785Z,97958.55
2019-03-13T00:23:00.292Z,97955.00
2019-03-13T00:25:28.889Z,97953.25
2019-03-13T00:27:57.470Z,97943.36
2019-03-13T00:30:26.160Z,97937.63
2019-03-13T00:32:54.700Z,97935.78
2019-03-13T00:35:23.351Z,97930.72
2019-03-13T00:37:51.946Z,97933.25
2019-03-13T00:40:20.454Z,97925.36
2019-03-13T00:42:48.994Z,97913.73
2019-03-13T00:45:17.515Z,97906.70
2019-03-13T00:47:46.329Z,97903.02
2019-03-13T00:50:26.949Z,97887.77
2019-03-13T00:52:55.470Z,97880.02
2019-03-13T00:55:24.015Z,97874.72
2019-03-13T00:57:52.612Z,97867.22
2019-03-13T01:00:39.451Z,97869.59
2019-03-13T01:03:09.671Z,97872.47
2019-03-13T01:05:56.527Z,97865.19
2019-03-13T01:08:25.050Z,97865.61
2019-03-13T01:10:53.663Z,97861.68
2019-03-13T01:13:22.328Z,97860.85
2019-03-13T01:15:50.850Z,97848.95
2019-03-13T01:18:19.379Z,97847.05
2019-03-13T01:20:47.921Z,97834.07
2019-03-13T01:23:16.432Z,97830.39
2019-03-13T01:25:45.043Z,97818.92
2019-03-13T01:28:13.720Z,97811.27
2019-03-13T01:30:46.708Z,97810.02
2019-03-13T01:33:16.873Z,97806.75
2019-03-13T01:35:47.032Z,97787.09
2019-03-13T01:38:15.627Z,97788.13
2019-03-13T01:40:44.201Z,97774.52
2019-03-13T01:43:12.810Z,97772.05
2019-03-13T01:45:41.474Z,97760.63
2019-03-13T01:48:10.053Z,97771.66
2019-03-13T01:50:38.557Z,97757.56
2019-03-13T01:53:07.067Z,97766.70
2019-03-13T01:55:35.678Z,97760.72
2019-03-13T01:58:04.406Z,97750.30
2019-03-13T02:00:33.347Z,97749.60
2019-03-13T02:03:01.960Z,97747.30
2019-03-13T02:05:30.470Z,97732.05
2019-03-13T02:07:59.083Z,97731.52
2019-03-13T02:10:27.593Z,97725.11
2019-03-13T02:12:56.130Z,97724.44
2019-03-13T02:15:24.713Z,97717.49
2019-03-13T02:17:53.229Z,97717.32
2019-03-13T02:20:21.741Z,97718.45
2019-03-13T02:22:50.351Z,97710.62
2019-03-13T02:25:19.098Z,97700.00
2019-03-13T02:27:47.679Z,97694.07
2019-03-13T02:30:21.548Z,97696.50
2019-03-13T02:32:50.277Z,97689.13
2019-03-13T02:35:18.896Z,97691.11
2019-03-13T02:37:47.411Z,97690.87
2019-03-13T02:40:16.591Z,97694.09
2019-03-13T02:42:45.114Z,97684.97
2019-03-13T02:45:15.176Z,97681.64
2019-03-13T02:47:43.701Z,97690.41
2019-03-13T02:50:16.606Z,97690.52
2019-03-13T02:52:45.180Z,97685.55
2019-03-13T02:55:13.861Z,97683.00
2019-03-13T02:57:42.441Z,97672.19
2019-03-13T03:00:15.374Z,97673.20
2019-03-13T03:02:45.889Z,97670.64
2019-03-13T03:05:14.540Z,97662.23
2019-03-13T03:07:43.046Z,97655.46
2019-03-13T03:10:13.010Z,97643.47
2019-03-13T03:12:41.681Z,97643.11
2019-03-13T03:15:18.093Z,97650.95
2019-03-13T03:17:46.677Z,97663.28
2019-03-13T03:20:17.726Z,97658.94
2019-03-13T03:22:46.347Z,97655.11
2019-03-13T03:25:16.413Z,97645.75
2019-03-13T03:27:44.987Z,97644.92
2019-03-13T03:30:19.024Z,97643.15
2019-03-13T03:32:47.546Z,97647.20
2019-03-13T03:35:16.238Z,97644.78
2019-03-13T03:37:44.834Z,97640.36
2019-03-13T03:40:21.338Z,97643.45
2019-03-13T03:42:46.429Z,97633.84
2019-03-13T03:45:15.089Z,97631.16
2019-03-13T03:47:43.676Z,97615.93
2019-03-13T03:50:13.804Z,97621.86
2019-03-13T03:52:42.266Z,97623.66
2019-03-13T03:55:12.106Z,97617.34
2019-03-13T03:57:40.627Z,97608.73
2019-03-13T04:00:15.032Z,97607.21
2019-03-13T04:02:43.483Z,97606.76
2019-03-13T04:05:12.193Z,97596.51
2019-03-13T04:07:40.729Z,97597.27
2019-03-13T04:10:13.459Z,97600.13
2019-03-13T04:12:41.988Z,97591.66
2019-03-13T04:15:12.051Z,97590.53
2019-03-13T04:17:40.610Z,97579.34
2019-03-13T04:20:14.187Z,97573.88
2019-03-13T04:22:42.782Z,97563.16
2019-03-13T04:25:23.489Z,97550.33
2019-03-13T04:27:52.021Z,97548.86
2019-03-13T04:30:20.477Z,97544.92
2019-03-13T04:32:48.965Z,97528.30
2019-03-13T04:35:18.195Z,97522.11
2019-03-13T04:37:46.677Z,97548.36
2019-03-13T04:40:15.712Z,97553.20
2019-03-13T04:42:44.262Z,97558.69
2019-03-13T04:45:13.278Z,97565.98
2019-03-13T04:47:41.758Z,97568.37
2019-03-13T04:50:46.846Z,97571.70
2019-03-13T04:53:15.328Z,97579.69
2019-03-13T04:55:43.821Z,97595.73
2019-03-13T04:58:12.321Z,97589.62
2019-03-13T05:00:40.792Z,97594.72
2019-03-13T05:03:09.454Z,97611.47
2019-03-13T05:05:44.993Z,97610.88
2019-03-13T05:08:19.076Z,97619.27
2019-03-13T05:10:47.543Z,97623.53
2019-03-13T05:13:16.002Z,97628.48
2019-03-13T05:15:44.503Z,97632.50
2019-03-13T05:18:13.084Z,97629.50
2019-03-13T05:20:41.560Z,97628.73
2019-03-13T05:23:10.057Z,97624.53
2019-03-13T05:25:38.523Z,97623.22
2019-03-13T05:28:07.132Z,97618.72
2019-03-13T05:30:35.583Z,97597.42
2019-03-13T05:33:04.038Z,97599.35
2019-03-13T05:35:32.529Z,97593.86
2019-03-13T05:38:00.991Z,97587.17
2019-03-13T05:40:29.477Z,97585.41
2019-03-13T05:42:57.993Z,97575.19
2019-03-13T05:45:26.458Z,97564.34
2019-03-13T05:47:54.973Z,97559.56
2019-03-13T05:50:23.430Z,97563.23
2019-03-13T05:52:51.899Z,97557.70
2019-03-13T05:55:20.386Z,97562.02
2019-03-13T05:57:48.850Z,97573.33
2019-03-13T06:00:18.967Z,97571.48
2019-03-13T06:02:48.117Z,97568.09
2019-03-13T06:05:16.659Z,97554.82
2019-03-13T06:07:45.122Z,97552.17
2019-03-13T06:10:14.927Z,97552.66
2019-03-13T06:12:43.422Z,97532.22
2019-03-13T06:15:13.627Z,97527.88
2019-03-13T06:17:42.194Z,97529.74
2019-03-13T06:20:13.498Z,97529.02
2019-03-13T06:22:41.995Z,97546.23
2019-03-13T06:25:12.463Z,97543.50
2019-03-13T06:27:40.944Z,97550.48
2019-03-13T06:30:18.227Z,97547.00
2019-03-13T06:32:46.773Z,97574.27
2019-03-13T06:35:15.505Z,97601.86
2019-03-13T06:37:44.151Z,97627.12
2019-03-13T06:40:14.355Z,97624.44
2019-03-13T06:42:42.926Z,97634.86
2019-03-13T06:45:13.426Z,97640.52
2019-03-13T06:47:42.017Z,97636.84
2019-03-13T06:50:13.462Z,97641.59
2019-03-13T06:52:41.994Z,97635.27
2019-03-13T06:55:10.859Z,97632.73
2019-03-13T06:57:39.329Z,97631.36
2019-03-13T07:00:39.423Z,97627.94
2019-03-13T07:03:27.884Z,97609.52
2019-03-13T07:05:58.002Z,97606.33
2019-03-13T07:08:39.872Z,97596.66
2019-03-13T07:11:22.236Z,97607.09
2019-03-13T07:14:08.432Z,97602.85
2019-03-13T07:16:54.787Z,97609.34
2019-03-13T07:19:24.897Z,97605.63
2019-03-13T07:21:57.955Z,97629.77
2019-03-13T07:24:31.040Z,97617.69
2019-03-13T07:27:01.175Z,97635.34
2019-03-13T07:29:43.095Z,97639.52
2019-03-13T07:32:13.208Z,97628.44
2019-03-13T07:34:46.032Z,97638.13
2019-03-13T07:37:18.590Z,97647.09
2019-03-13T07:40:05.095Z,97643.06
2019-03-13T07:42:35.195Z,97643.81
2019-03-13T07:45:06.548Z,97655.86
2019-03-13T07:47:45.923Z,97669.66
2019-03-13T07:50:19.282Z,97672.95
2019-03-13T07:52:55.099Z,97674.61
2019-03-13T07:55:40.188Z,97676.94
2019-03-13T07:58:10.335Z,97680.74
2019-03-13T08:00:40.464Z,97680.72
2019-03-13T08:03:19.576Z,97689.89
2019-03-13T08:05:49.685Z,97713.20
2019-03-13T08:08:19.825Z,97717.03
2019-03-13T08:10:52.356Z,97720.44
2019-03-13T08:13:40.560Z,97725.13
2019-03-13T08:16:25.688Z,97722.81
2019-03-13T08:19:01.699Z,97718.81
2019-03-13T08:21:47.692Z,97728.71
2019-03-13T08:24:35.904Z,97731.36
2019-03-13T08:27:24.446Z,97725.76
2019-03-13T08:30:12.938Z,97724.55
2019-03-13T08:32:45.873Z,97729.74
2019-03-13T08:35:24.655Z,97733.67
2019-03-13T08:37:54.762Z,97727.89
2019-03-13T08:40:36.385Z,97726.17
2019-03-13T08:43:22.694Z,97720.03
2019-03-13T08:46:08.994Z,97732.79
2019-03-13T08:48:54.509Z,97730.30
2019-03-13T08:51:36.387Z,97737.08
2019-03-13T08:54:23.252Z,97740.73
2019-03-13T08:57:08.428Z,97732.33
2019-03-13T08:59:54.825Z,97730.95
2019-03-13T09:02:37.438Z,97726.14
2019-03-13T09:05:08.784Z,97725.50
2019-03-13T09:07:38.893Z,97743.00
2019-03-13T09:10:14.689Z,97742.84
2019-03-13T09:12:44.794Z,97741.94
2019-03-13T09:15:27.199Z,97741.36
2019-03-13T09:18:02.882Z,97765.13
2019-03-13T09:20:35.723Z,97753.77
2019-03-13T09:23:14.564Z,97751.38
2019-03-13T09:25:56.658Z,97757.45
2019-03-13T09:28:29.432Z,97765.56
2019-03-13T09:31:02.006Z,97758.08
2019-03-13T09:33:34.814Z,97768.09
2019-03-13T09:36:04.946Z,97769.23
2019-03-13T09:38:38.209Z,97771.57
2019-03-13T09:41:13.015Z,97762.83
2019-03-13T09:43:45.800Z,97767.33
2019-03-13T09:46:21.709Z,97771.72
2019-03-13T09:48:51.815Z,97761.08
2019-03-13T09:51:21.960Z,97746.03
2019-03-13T09:53:57.557Z,97757.02
2019-03-13T09:56:27.658Z,97756.28
2019-03-13T09:59:16.075Z,97750.97
2019-03-13T10:01:48.873Z,97760.67
2019-03-13T10:04:35.483Z,97756.84
2019-03-13T10:07:11.320Z,97765.81
2019-03-13T10:09:41.462Z,97761.76
2019-03-13T10:12:26.692Z,97744.35
2019-03-13T10:15:13.029Z,97747.10
2019-03-13T10:17:59.424Z,97755.36
2019-03-13T10:20:29.537Z,97755.67
2019-03-13T10:23:02.619Z,97750.41
2019-03-13T10:25:42.049Z,97758.64
2019-03-13T10:28:18.156Z,97766.05
2019-03-13T10:31:04.663Z,97771.70
2019-03-13T10:33:34.787Z,97767.52
2019-03-13T10:36:04.893Z,97769.34
2019-03-13T10:38:41.090Z,97775.11
2019-03-13T10:41:27.140Z,97777.09
2019-03-13T10:43:57.273Z,97782.08
2019-03-13T10:46:45.153Z,97790.00
2019-03-13T10:49:15.322Z,97799.63
2019-03-13T10:51:45.457Z,97806.22
2019-03-13T10:54:24.722Z,97802.20
2019-03-13T10:57:03.729Z,97792.37
2019-03-13T10:59:36.506Z,97786.70
2019-03-13T11:02:10.656Z,97772.72
2019-03-13T11:04:40.938Z,97776.37
2019-03-13T11:07:11.046Z,97784.39
2019-03-13T11:09:41.159Z,97788.73
2019-03-13T11:12:20.020Z,97787.82
2019-03-13T11:14:50.155Z,97796.36
2019-03-13T11:17:26.193Z,97798.63
2019-03-13T11:20:11.166Z,97798.54
2019-03-13T11:22:41.304Z,97778.70
2019-03-13T11:25:11.545Z,97784.89
2019-03-13T11:27:44.358Z,97781.78
2019-03-13T11:30:32.759Z,97786.09
2019-03-13T11:33:05.868Z,97785.03
2019-03-13T11:35:35.974Z,97781.63
2019-03-13T11:38:06.349Z,97775.70
2019-03-13T11:40:44.994Z,97769.98
2019-03-13T11:43:18.221Z,97780.03
2019-03-13T11:45:54.099Z,97767.80
2019-03-13T11:48:38.943Z,97768.73
2019-03-13T11:51:15.471Z,97760.28
2019-03-13T11:54:34.144Z,97753.75
2019-03-13T12:02:42.749Z,97730.42
2019-03-13T12:05:14.008Z,97729.65
2019-03-13T12:07:49.614Z,97716.53
2019-03-13T12:10:19.791Z,97721.91
2019-03-13T12:12:55.662Z,97724.70
2019-03-13T12:15:25.839Z,97725.36
2019-03-13T12:17:56.040Z,97738.19
2019-03-13T12:20:26.139Z,97739.44
2019-03-13T12:22:58.941Z,97732.38
2019-03-13T12:25:29.039Z,97734.83
2019-03-13T12:28:11.019Z,97735.21
2019-03-13T12:30:46.908Z,97738.16
2019-03-13T12:33:19.819Z,97736.47
2019-03-13T12:35:52.393Z,97725.03
2019-03-13T12:38:28.406Z,97729.24
2019-03-13T12:40:58.679Z,97726.85
2019-03-13T12:43:44.911Z,97721.82
2019-03-13T12:46:31.382Z,97717.81
2019-03-13T12:49:01.500Z,97715.86
2019-03-13T12:51:37.085Z,97711.27
2019-03-13T12:54:07.367Z,97725.97
2019-03-13T12:56:45.956Z,97724.14
2019-03-13T12:59:16.128Z,97717.50
2019-03-13T13:01:52.231Z,97714.47
2019-03-13T13:04:25.576Z,97717.23
2019-03-13T13:07:04.357Z,97710.91
2019-03-13T13:09:46.820Z,97711.09
2019-03-13T13:12:19.659Z,97713.64
2019-03-13T13:14:55.639Z,97705.95
2019-03-13T13:17:31.852Z,97708.23
2019-03-13T13:20:00.403Z,97703.94
2019-03-13T13:22:28.936Z,97697.98
2019-03-13T13:24:57.539Z,97706.98
2019-03-13T13:27:26.034Z,97706.94
2019-03-13T13:29:54.720Z,97709.65
2019-03-13T13:32:24.647Z,97705.27
2019-03-13T13:34:53.097Z,97698.09
2019-03-13T13:37:21.657Z,97700.48
2019-03-13T13:39:50.286Z,97706.79
2019-03-13T13:42:18.901Z,97698.97
2019-03-13T13:44:47.424Z,97696.93
2019-03-13T13:47:15.887Z,97692.59
2019-03-13T13:49:58.884Z,97689.23
2019-03-13T13:52:16.884Z,97687.80
2019-03-13T13:54:45.389Z,97691.70
2019-03-13T13:57:13.991Z,97690.64
2019-03-13T13:59:42.554Z,97698.27
2019-03-13T14:02:11.049Z,97687.28
2019-03-13T14:04:39.513Z,97689.92
2019-03-13T14:07:08.024Z,97703.07
2019-03-13T14:09:36.567Z,97696.39
2019-03-13T14:12:05.276Z,97699.96
2019-03-13T14:14:33.755Z,97697.99
2019-03-13T14:17:02.224Z,97695.36
2019-03-13T14:19:30.703Z,97696.05
2019-03-13T14:21:59.158Z,97687.85
2019-03-13T14:24:27.635Z,97694.81
2019-03-13T14:26:56.115Z,97686.75
2019-03-13T14:29:24.590Z,97687.19
2019-03-13T14:31:53.364Z,97681.95
2019-03-13T14:34:21.916Z,97682.48
2019-03-13T14:36:50.435Z,97688.80
2019-03-13T14:39:18.978Z,97682.94
2019-03-13T14:41:47.589Z,97679.31
2019-03-13T14:44:16.053Z,97677.82
2019-03-13T14:46:44.660Z,97680.80
2019-03-13T14:49:13.195Z,97683.66
2019-03-13T14:51:41.710Z,97678.45
2019-03-13T14:54:11.763Z,97679.58
2019-03-13T14:56:40.263Z,97679.55
2019-03-13T14:59:10.033Z,97674.47
2019-03-13T15:01:38.494Z,97675.86
2019-03-13T15:04:08.069Z,97677.04
2019-03-13T15:06:38.750Z,97678.37
2019-03-13T15:09:06.869Z,97678.73
2019-03-13T15:11:35.348Z,97683.41
2019-03-13T15:14:04.613Z,97683.23
2019-03-13T15:16:33.115Z,97671.61
2019-03-13T15:19:01.603Z,97671.41
2019-03-13T15:21:30.060Z,97675.24
2019-03-13T15:23:58.513Z,97677.57
2019-03-13T15:26:27.085Z,97668.86
2019-03-13T15:28:55.553Z,97666.19
2019-03-13T15:31:24.059Z,97669.48
2019-03-13T15:33:52.535Z,97663.92
2019-03-13T15:36:21.020Z,97663.59
2019-03-13T15:38:49.513Z,97662.50
2019-03-13T15:41:17.999Z,97664.38
2019-03-13T15:43:47.950Z,97659.20
2019-03-13T15:46:16.453Z,97656.66
2019-03-13T15:48:47.654Z,97653.46
2019-03-13T15:51:16.132Z,97650.61
2019-03-13T15:53:44.664Z,97645.77
2019-03-13T15:56:13.177Z,97652.09
2019-03-13T15:58:41.650Z,97646.52
2019-03-13T16:01:10.190Z,97650.23
2019-03-13T16:03:38.667Z,97647.53
2019-03-13T16:06:07.169Z,97640.18
2019-03-13T16:08:35.633Z,97652.75
2019-03-13T16:11:04.401Z,97640.67
2019-03-13T16:13:32.854Z,97649.41
2019-03-13T16:16:01.668Z,97646.34
2019-03-13T16:18:30.132Z,97650.66
2019-03-13T16:20:58.613Z,97640.70
2019-03-13T16:23:27.131Z,97652.81
2019-03-13T16:25:55.869Z,97651.03
2019-03-13T16:28:24.469Z,97656.36
2019-03-13T16:30:54.567Z,97662.98
2019-03-13T16:33:23.127Z,97659.22
2019-03-13T16:35:51.606Z,97658.46
2019-03-13T16:38:20.079Z,97655.30
2019-03-13T16:40:48.623Z,97663.98
2019-03-13T16:43:18.378Z,97651.39
2019-03-13T16:45:46.928Z,97660.25
2019-03-13T16:48:15.474Z,97662.48
2019-03-13T16:50:46.404Z,97666.82
2019-03-13T16:53:14.907Z,97661.34
2019-03-13T16:55:43.378Z,97665.31
2019-03-13T16:58:11.879Z,97670.70
2019-03-13T17:00:40.533Z,97668.73
2019-03-13T17:03:09.071Z,97666.80
2019-03-13T17:05:37.582Z,97663.40
2019-03-13T17:08:07.472Z,97669.83
2019-03-13T17:10:35.980Z,97673.88
2019-03-13T17:13:05.683Z,97671.59
2019-03-13T17:15:34.711Z,97671.92
2019-03-13T17:18:05.178Z,97675.81
2019-03-13T17:20:39.396Z,97672.36
2019-03-13T17:23:07.906Z,97675.43
2019-03-13T17:25:36.621Z,97683.22
2019-03-13T17:28:06.046Z,97675.70
2019-03-13T17:30:34.714Z,97688.41
2019-03-13T17:33:03.169Z,97689.64
2019-03-13T17:35:31.815Z,97695.01
2019-03-13T17:38:00.356Z,97703.54
2019-03-13T17:40:30.677Z,97706.72
2019-03-13T17:42:59.170Z,97707.63
2019-03-13T17:45:27.809Z,97707.58
2019-03-13T17:47:56.363Z,97720.24
2019-03-13T17:50:25.743Z,97714.27
2019-03-13T17:52:54.377Z,97715.86
2019-03-13T17:55:24.264Z,97708.00
2019-03-13T17:57:52.962Z,97711.91
2019-03-13T18:00:31.844Z,97704.31
2019-03-13T18:03:00.472Z,97714.59
2019-03-13T18:05:29.004Z,97719.34
2019-03-13T18:07:57.502Z,97723.16
2019-03-13T18:10:25.983Z,97728.76
2019-03-13T18:12:54.545Z,97729.03
2019-03-13T18:15:23.113Z,97726.79
2019-03-13T18:17:51.711Z,97732.29
2019-03-13T18:20:24.817Z,97745.55
2019-03-13T18:22:53.512Z,97751.75
2019-03-13T18:25:22.184Z,97756.02
2019-03-13T18:27:50.831Z,97747.72
2019-03-13T18:30:33.625Z,97748.78
2019-03-13T18:33:02.260Z,97753.09
2019-03-13T18:35:30.976Z,97748.19
2019-03-13T18:37:59.611Z,97757.32
2019-03-13T18:40:28.151Z,97744.71
2019-03-13T18:42:56.785Z,97742.36
2019-03-13T18:45:32.430Z,97748.91
2019-03-13T18:48:00.981Z,97733.42
2019-03-13T18:50:30.105Z,97720.36
2019-03-13T18:52:58.651Z,97722.28
2019-03-13T18:55:37.022Z,97717.59
2019-03-13T18:58:06.414Z,97721.91
2019-03-13T19:00:36.020Z,97715.73
2019-03-13T19:03:06.843Z,97714.50
2019-03-13T19:05:36.787Z,97717.22
2019-03-13T19:08:06.935Z,97718.36
2019-03-13T19:10:35.685Z,97709.36
2019-03-13T19:13:06.255Z,97717.17
2019-03-13T19:15:34.974Z,97719.40
2019-03-13T19:18:03.586Z,97713.73
2019-03-13T19:20:32.196Z,97715.28
2019-03-13T19:23:01.132Z,97711.84
2019-03-13T19:25:29.937Z,97711.05
2019-03-13T19:27:58.664Z,97710.23
2019-03-13T19:30:31.827Z,97716.19
2019-03-13T19:33:01.174Z,97716.59
2019-03-13T19:35:29.843Z,97708.73
2019-03-13T19:38:01.169Z,97703.22
2019-03-13T19:40:29.880Z,97698.83
2019-03-13T19:42:58.377Z,97691.98
2019-03-13T19:45:41.550Z,97703.45
2019-03-13T19:48:10.416Z,97696.20
2019-03-13T19:50:39.044Z,97701.34
2019-03-13T19:53:07.887Z,97707.73
2019-03-13T19:55:36.554Z,97710.47
2019-03-13T19:58:06.069Z,97711.50
2019-03-13T20:00:34.681Z,97706.45
2019-03-13T20:03:06.230Z,97702.39
2019-03-13T20:05:44.681Z,97706.48
2019-03-13T20:08:05.377Z,97702.00
2019-03-13T20:10:34.212Z,97703.51
2019-03-13T20:13:02.899Z,97712.22
2019-03-13T20:15:32.998Z,97701.77
2019-03-13T20:18:01.687Z,97709.04
2019-03-13T20:20:30.392Z,97706.92
2019-03-13T20:23:04.635Z,97701.34
2019-03-13T20:25:33.434Z,97707.98
2019-03-13T20:28:02.121Z,97703.66
2019-03-13T20:30:30.755Z,97707.55
2019-03-13T20:32:59.457Z,97707.80
2019-03-13T20:35:28.134Z,97706.08
2019-03-13T20:37:56.873Z,97713.61
2019-03-13T20:40:26.558Z,97703.15
2019-03-13T20:42:55.287Z,97699.78
2019-03-13T20:45:26.904Z,97695.42
2019-03-13T20:47:55.743Z,97691.14
2019-03-13T20:50:36.097Z,97683.21
2019-03-13T20:52:54.853Z,97681.91
2019-03-13T20:55:23.989Z,97678.09
2019-03-13T20:57:52.564Z,97672.82
2019-03-13T21:00:25.528Z,97666.38
2019-03-13T21:02:55.140Z,97663.04
2019-03-13T21:05:24.142Z,97665.16
2019-03-13T21:07:53.153Z,97658.12
2019-03-13T21:10:21.978Z,97646.28
2019-03-13T21:12:50.638Z,97645.34
2019-03-13T21:15:21.777Z,97646.07
2019-03-13T21:17:50.391Z,97643.86
2019-03-13T21:20:19.465Z,97636.83
2019-03-13T21:22:47.939Z,97635.87
2019-03-13T21:25:20.887Z,97626.71
2019-03-13T21:27:49.537Z,97629.11
2019-03-13T21:30:26.246Z,97634.11
2019-03-13T21:32:54.800Z,97637.06
2019-03-13T21:35:24.004Z,97634.62
2019-03-13T21:37:52.683Z,97630.52
2019-03-13T21:40:26.367Z,97625.44
2019-03-13T21:42:55.488Z,97626.56
2019-03-13T21:45:25.975Z,97627.59
2019-03-13T21:47:54.583Z,97625.89
2019-03-13T21:50:23.554Z,97619.08
2019-03-13T21:52:52.361Z,97626.49
2019-03-13T21:55:20.925Z,97615.61
2019-03-13T21:57:51.935Z,97610.04
2019-03-13T22:00:27.542Z,97607.06
2019-03-13T22:02:56.469Z,97610.80
2019-03-13T22:05:27.048Z,97615.04
2019-03-13T22:07:56.199Z,97614.33
2019-03-13T22:10:24.863Z,97610.17
2019-03-13T22:12:53.414Z,97610.28
2019-03-13T22:15:23.117Z,97609.04
2019-03-13T22:17:51.762Z,97599.69
2019-03-13T22:20:20.677Z,97601.16
2019-03-13T22:22:49.326Z,97593.25
2019-03-13T22:25:19.707Z,97595.05
2019-03-13T22:27:48.445Z,97598.03
2019-03-13T22:30:19.150Z,97597.90
2019-03-13T22:32:47.831Z,97598.63
2019-03-13T22:35:16.427Z,97596.66
2019-03-13T22:37:44.977Z,97590.29
2019-03-13T22:40:14.908Z,97594.45
2019-03-13T22:42:43.386Z,97581.07
2019-03-13T22:45:16.945Z,97576.38
2019-03-13T22:47:45.489Z,97580.86
2019-03-13T22:50:24.914Z,97574.06
2019-03-13T22:52:53.521Z,97582.49
2019-03-13T22:55:22.133Z,97570.77
2019-03-13T22:57:50.590Z,97573.06
2019-03-13T23:00:41.631Z,97580.23
2019-03-13T23:03:10.837Z,97575.77
2019-03-13T23:05:39.411Z,97579.11
2019-03-13T23:08:07.949Z,97573.38
2019-03-13T23:10:36.983Z,97564.16
2019-03-13T23:13:05.611Z,97557.17
2019-03-13T23:15:34.151Z,97557.67
2019-03-13T23:18:02.652Z,97568.41
2019-03-13T23:20:31.119Z,97560.17
2019-03-13T23:22:59.584Z,97557.56
2019-03-13T23:25:28.329Z,97556.56
2019-03-13T23:27:56.804Z,97557.57
2019-03-13T23:30:25.340Z,97552.64
2019-03-13T23:32:53.838Z,97548.22
2019-03-13T23:35:22.377Z,97550.31
2019-03-13T23:37:50.857Z,97556.32
2019-03-13T23:40:19.334Z,97548.70
2019-03-13T23:42:47.795Z,97553.45
2019-03-13T23:45:16.430Z,97546.16
2019-03-13T23:47:44.896Z,97551.83
2019-03-13T23:50:14.540Z,97548.78
2019-03-13T23:52:43.023Z,97547.67
2019-03-13T23:55:11.954Z,97547.52
2019-03-13T23:57:40.418Z,97547.59
